• Join FlightAware (Why Join?)
  • Login
  • US Flag 
10:51PM EDT


 

Airport Tracker/Info


-or-


 

Live Flight TrackerFlight Track Log ✈ XOJ552 ✈ 28-Jun-2013 ✈ PHNL - KOAK

Flight Track Log - Related Links

Times and Time Zones

All times are in EDT time to prevent confusion due to time zone crossing. See the XOJ552 flight status page for this flight to view local times or setup timezone preferences in your user account.

Time Position Orientation Groundspeed Altitude Reporting Facility
EDT Latitude Longitude Course Direction KTS MPH feet Rate Location/Type
04:18PM 21.3000 -157.9000 51° Northeast 170 196 1,100  Level Honolulu Center
04:19PM 21.2500 -157.8667 148° Southeast 240 276 4,200 3,420 Climbing Honolulu Center
04:20PM 21.2000 -157.8000 129° Southeast 270 311 8,100 3,600 Climbing Honolulu Center
04:21PM 21.1667 -157.7333 118° Southeast 280 322 11,500 2,820 Climbing Honolulu Center
04:22PM 21.2000 -157.6500 67° East 310 357 13,900 2,400 Climbing Honolulu Center
04:23PM 21.2333 -157.5500 70° East 330 380 16,400 2,400 Climbing Honolulu Center
04:24PM 21.1622 -157.1283 51° Northeast  Level FlightAware Approximate
04:24PM 21.2667 -157.4667 67° East 340 391 18,800  Level Honolulu Center
04:25PM 21.3167 -157.3667 62° Northeast 350 403 21,300 2,280 Climbing Honolulu Center
04:26PM 21.3667 -157.2833 57° Northeast 370 426 23,400 1,980 Climbing Honolulu Center
04:27PM 21.4333 -157.1833 54° Northeast 390 449 25,300 1,980 Climbing Honolulu Center
04:28PM 21.5000 -157.0833 54° Northeast 400 460 27,500 1,920 Climbing Honolulu Center
04:29PM 21.5667 -156.9833 54° Northeast 400 460 29,200 1,500 Climbing Honolulu Center
04:30PM 21.6167 -156.8833 62° Northeast 420 483 30,600 1,260 Climbing Honolulu Center
04:31PM 21.6833 -156.7667 58° Northeast 440 506 31,800 1,320 Climbing Honolulu Center
04:32PM 21.7667 -156.6667 48° Northeast 450 518 33,300 1,440 Climbing Honolulu Center
04:33PM 21.8333 -156.5500 58° Northeast 450 518 34,800 1,140 Climbing Honolulu Center
04:34PM 21.9000 -156.4333 58° Northeast 450 518 35,700 840 Climbing Honolulu Center
04:35PM 21.9667 -156.3167 58° Northeast 470 541 36,500 900 Climbing Honolulu Center
04:36PM 22.0500 -156.2000 52° Northeast 470 541 37,500 960 Climbing Honolulu Center
04:37PM 22.1167 -156.0833 58° Northeast 470 541 38,500 1,020 Climbing Honolulu Center
04:38PM 22.2000 -155.9667 52° Northeast 470 541 39,600 840 Climbing Honolulu Center
04:39PM 22.2667 -155.8500 58° Northeast 460 529 40,200 660 Climbing Honolulu Center
04:40PM 22.3333 -155.7333 58° Northeast 460 529 41,000 360 Climbing Honolulu Center
04:41PM 22.4000 -155.6167 58° Northeast 460 529 41,000  Level Honolulu Center
04:42PM 22.4833 -155.5000 52° Northeast 460 529 41,000  Level Honolulu Center
04:43PM 22.5500 -155.3833 58° Northeast 460 529 41,000  Level Honolulu Center
04:44PM 22.6167 -155.2667 58° Northeast 470 541 41,000  Level Honolulu Center
04:45PM 22.6833 -155.1500 58° Northeast 460 529 41,000  Level Honolulu Center
04:46PM 22.7667 -155.0333 52° Northeast 460 529 41,000  Level Honolulu Center
04:47PM 22.8333 -154.9167 58° Northeast 460 529 41,000  Level Honolulu Center
04:48PM 22.9000 -154.8000 58° Northeast 470 541 41,000  Level Honolulu Center
04:49PM 22.9833 -154.6833 52° Northeast 470 541 41,000  Level Honolulu Center
04:51PM 23.0588 -154.5518 57° Northeast  Level FlightAware Approximate
04:58PM 23.5505 -153.7234 57° Northeast  Level FlightAware Approximate
04:59PM 23.6204 -153.6045 57° Northeast  Level FlightAware Approximate
05:00PM 23.6902 -153.4855 57° Northeast  Level FlightAware Approximate
05:01PM 23.7588 -153.3657 61° Northeast  Level FlightAware Approximate
05:02PM 23.8328 -153.2506 57° Northeast  Level FlightAware Approximate
05:03PM 23.9034 -153.1320 57° Northeast  Level FlightAware Approximate
05:04PM 23.9740 -153.0134 57° Northeast  Level FlightAware Approximate
05:04PM 23.7833 -153.3667 57° Northeast 461 531 41,000  Level Oakland Oceanic (ODAPS)
05:05PM 24.0445 -152.8945 57° Northeast  Level FlightAware Approximate
05:06PM 24.1149 -152.7756 57° Northeast  Level FlightAware Approximate
05:07PM 24.1860 -152.6558 57° Northeast  Level FlightAware Approximate
05:08PM 24.2570 -152.5359 57° Northeast  Level FlightAware Approximate
05:09PM 24.3279 -152.4159 57° Northeast  Level FlightAware Approximate
05:10PM 24.4796 -152.1883 57° Northeast 461 531 41,000  Level FlightAware Transoceanic
05:11PM 24.5487 -152.0697 57° Northeast 461 531 41,000  Level FlightAware Transoceanic
05:12PM 24.6178 -151.9510 57° Northeast 461 531 41,000  Level FlightAware Transoceanic
05:13PM 24.6867 -151.8322 57° Northeast 461 531 41,000  Level FlightAware Transoceanic
05:14PM 24.7556 -151.7133 58° Northeast 461 531 41,000  Level FlightAware Transoceanic
05:15PM 24.8243 -151.5942 58° Northeast 461 531 41,000  Level FlightAware Transoceanic
05:16PM 24.8930 -151.4750 58° Northeast 461 531 41,000  Level FlightAware Transoceanic
05:17PM 24.9615 -151.3557 58° Northeast 461 531 41,000  Level FlightAware Transoceanic
05:18PM 25.0300 -151.2362 58° Northeast 461 531 41,000  Level FlightAware Transoceanic
05:19PM 25.0984 -151.1166 58° Northeast 461 531 41,000  Level FlightAware Transoceanic
05:20PM 25.1666 -150.9969 58° Northeast 461 531 41,000  Level FlightAware Transoceanic
05:21PM 25.2348 -150.8770 58° Northeast 461 531 41,000  Level FlightAware Transoceanic
05:22PM 25.3029 -150.7570 58° Northeast 461 531 41,000  Level FlightAware Transoceanic
05:23PM 25.3709 -150.6368 58° Northeast 461 531 41,000  Level FlightAware Transoceanic
05:24PM 25.4388 -150.5166 58° Northeast 461 531 41,000  Level FlightAware Transoceanic
05:25PM 25.5066 -150.3961 58° Northeast 461 531 41,000  Level FlightAware Transoceanic
05:26PM 25.5743 -150.2756 58° Northeast 461 531 41,000  Level FlightAware Transoceanic
05:27PM 25.6418 -150.1549 58° Northeast 461 531 41,000  Level FlightAware Transoceanic
05:28PM 25.7094 -150.0341 58° Northeast 461 531 41,000  Level FlightAware Transoceanic
05:29PM 25.7767 -149.9131 58° Northeast 461 531 41,000  Level FlightAware Transoceanic
05:30PM 25.8440 -149.7921 58° Northeast 461 531 41,000  Level FlightAware Transoceanic
05:31PM 25.9112 -149.6708 58° Northeast 461 531 41,000  Level FlightAware Transoceanic
05:32PM 25.9783 -149.5494 58° Northeast 461 531 41,000  Level FlightAware Transoceanic
05:33PM 26.0453 -149.4279 58° Northeast 461 531 41,000  Level FlightAware Transoceanic
05:34PM 26.1122 -149.3063 59° Northeast 461 531 41,000  Level FlightAware Transoceanic
05:35PM 26.1790 -149.1845 59° Northeast 461 531 41,000  Level FlightAware Transoceanic
05:36PM 26.2457 -149.0626 59° Northeast 461 531 41,000  Level FlightAware Transoceanic
05:37PM 26.3123 -148.9405 59° Northeast 461 531 41,000  Level FlightAware Transoceanic
05:38PM 26.3787 -148.8183 59° Northeast 461 531 41,000  Level FlightAware Transoceanic
05:39PM 26.4451 -148.6959 59° Northeast 461 531 41,000  Level FlightAware Transoceanic
05:40PM 26.5114 -148.5735 59° Northeast 461 531 41,000  Level FlightAware Transoceanic
05:41PM 26.5775 -148.4508 59° Northeast 461 531 41,000  Level FlightAware Transoceanic
05:42PM 26.6436 -148.3280 59° Northeast 461 531 41,000  Level FlightAware Transoceanic
05:43PM 26.7096 -148.2051 59° Northeast 461 531 41,000  Level FlightAware Transoceanic
05:44PM 26.7754 -148.0821 59° Northeast 461 531 41,000  Level FlightAware Transoceanic
05:45PM 26.8411 -147.9589 59° Northeast 461 531 41,000  Level FlightAware Transoceanic
05:46PM 26.9068 -147.8355 59° Northeast 461 531 41,000  Level FlightAware Transoceanic
05:47PM 26.9723 -147.7121 59° Northeast 461 531 41,000  Level FlightAware Transoceanic
05:48PM 27.0377 -147.5884 59° Northeast 461 531 41,000  Level FlightAware Transoceanic
05:49PM 27.1030 -147.4646 59° Northeast 461 531 41,000  Level FlightAware Transoceanic
05:50PM 27.1682 -147.3407 59° Northeast 461 531 41,000  Level FlightAware Transoceanic
05:51PM 27.2333 -147.2167 59° Northeast 461 531 41,000  Level FlightAware Transoceanic
05:52PM 27.3104 -147.0695 60° Northeast 461 531 41,000  Level FlightAware Transoceanic
05:53PM 27.3874 -146.9222 60° Northeast 461 531 41,000  Level FlightAware Transoceanic
05:54PM 27.4641 -146.7747 60° Northeast 461 531 41,000  Level FlightAware Transoceanic
05:54PM 27.2333 -147.2167 59° Northeast 480 552 41,000  Level Oakland Oceanic (ODAPS)
05:55PM 27.5408 -146.6270 60° Northeast 461 531 41,000  Level FlightAware Transoceanic
05:56PM 27.6173 -146.4790 60° Northeast 461 531 41,000  Level FlightAware Transoceanic
05:57PM 27.6936 -146.3309 60° Northeast 461 531 41,000  Level FlightAware Transoceanic
05:58PM 27.7697 -146.1826 60° Northeast 461 531 41,000  Level FlightAware Transoceanic
05:59PM 27.8457 -146.0340 60° Northeast 461 531 41,000  Level FlightAware Transoceanic
06:00PM 27.9216 -145.8852 60° Northeast 461 531 41,000  Level FlightAware Transoceanic
06:01PM 27.9710 -145.7880 60° Northeast 480 552 41,000  Level FlightAware Transoceanic
06:02PM 28.0373 -145.6571 60° Northeast 480 552 41,000  Level FlightAware Transoceanic
06:03PM 28.1035 -145.5261 60° Northeast 480 552 41,000  Level FlightAware Transoceanic
06:04PM 28.1696 -145.3950 60° Northeast 480 552 41,000  Level FlightAware Transoceanic
06:05PM 28.2356 -145.2637 60° Northeast 480 552 41,000  Level FlightAware Transoceanic
06:06PM 28.3014 -145.1322 60° Northeast 480 552 41,000  Level FlightAware Transoceanic
06:07PM 28.3671 -145.0005 60° Northeast 480 552 41,000  Level FlightAware Transoceanic
06:08PM 28.4327 -144.8687 61° Northeast 480 552 41,000  Level FlightAware Transoceanic
06:09PM 28.4981 -144.7367 61° Northeast 480 552 41,000  Level FlightAware Transoceanic
06:10PM 28.5635 -144.6046 61° Northeast 480 552 41,000  Level FlightAware Transoceanic
06:11PM 28.6287 -144.4723 61° Northeast 480 552 41,000  Level FlightAware Transoceanic
06:12PM 28.6937 -144.3398 61° Northeast 480 552 41,000  Level FlightAware Transoceanic
06:13PM 28.7587 -144.2072 61° Northeast 480 552 41,000  Level FlightAware Transoceanic
06:14PM 28.8235 -144.0744 61° Northeast 480 552 41,000  Level FlightAware Transoceanic
06:15PM 28.8881 -143.9414 61° Northeast 480 552 41,000  Level FlightAware Transoceanic
06:16PM 28.9527 -143.8083 61° Northeast 480 552 41,000  Level FlightAware Transoceanic
06:17PM 29.0171 -143.6750 61° Northeast 480 552 41,000  Level FlightAware Transoceanic
06:18PM 29.0814 -143.5415 61° Northeast 480 552 41,000  Level FlightAware Transoceanic
06:19PM 29.1455 -143.4079 61° Northeast 480 552 41,000  Level FlightAware Transoceanic
06:20PM 29.2096 -143.2741 61° Northeast 480 552 41,000  Level FlightAware Transoceanic
06:21PM 29.2734 -143.1402 61° Northeast 480 552 41,000  Level FlightAware Transoceanic
06:22PM 29.3372 -143.0060 61° Northeast 480 552 41,000  Level FlightAware Transoceanic
06:23PM 29.4008 -142.8717 62° Northeast 480 552 41,000  Level FlightAware Transoceanic
06:24PM 29.4643 -142.7373 62° Northeast 480 552 41,000  Level FlightAware Transoceanic
06:25PM 29.5276 -142.6027 62° Northeast 480 552 41,000  Level FlightAware Transoceanic
06:26PM 29.5909 -142.4679 62° Northeast 480 552 41,000  Level FlightAware Transoceanic
06:27PM 29.6539 -142.3329 62° Northeast 480 552 41,000  Level FlightAware Transoceanic
06:28PM 29.7169 -142.1978 62° Northeast 480 552 41,000  Level FlightAware Transoceanic
06:29PM 29.7797 -142.0624 62° Northeast 480 552 41,000  Level FlightAware Transoceanic
06:30PM 29.8423 -141.9270 62° Northeast 480 552 41,000  Level FlightAware Transoceanic
06:31PM 29.9049 -141.7913 62° Northeast 480 552 41,000  Level FlightAware Transoceanic
06:32PM 29.9672 -141.6555 62° Northeast 480 552 41,000  Level FlightAware Transoceanic
06:33PM 30.0295 -141.5195 62° Northeast 480 552 41,000  Level FlightAware Transoceanic
06:34PM 30.0916 -141.3834 62° Northeast 480 552 41,000  Level FlightAware Transoceanic
06:35PM 30.1536 -141.2470 62° Northeast 480 552 41,000  Level FlightAware Transoceanic
06:36PM 30.2154 -141.1105 62° Northeast 480 552 41,000  Level FlightAware Transoceanic
06:37PM 30.2771 -140.9739 62° Northeast 480 552 41,000  Level FlightAware Transoceanic
06:38PM 30.3386 -140.8370 63° Northeast 480 552 41,000  Level FlightAware Transoceanic
06:39PM 30.4000 -140.7000 63° Northeast 480 552 41,000  Level FlightAware Transoceanic
06:40PM 30.4714 -140.5403 63° Northeast 480 552 41,000  Level FlightAware Transoceanic
06:41PM 30.5426 -140.3803 63° Northeast 480 552 41,000  Level FlightAware Transoceanic
06:42PM 30.6136 -140.2201 63° Northeast 480 552 41,000 2,940 Level FlightAware Transoceanic
06:42PM 30.4000 -140.7000 63° Northeast 470 541 45,000  Climbing Oakland Oceanic (ODAPS)
06:43PM 30.6844 -140.0597 63° Northeast 480 552 41,000 -2,460 Descending FlightAware Transoceanic
06:44PM 30.7550 -139.8990 63° Northeast 480 552 41,000  Level FlightAware Transoceanic
06:45PM 30.8254 -139.7381 63° Northeast 480 552 41,000  Level FlightAware Transoceanic
06:46PM 30.8956 -139.5770 63° Northeast 480 552 41,000  Level FlightAware Transoceanic
06:47PM 30.9656 -139.4156 63° Northeast 480 552 41,000 1,980 Level FlightAware Transoceanic
06:48PM 30.8777 -139.6181 63° Northeast 470 541 45,000 1,980 Climbing FlightAware Transoceanic
06:49PM 30.9368 -139.4821 63° Northeast 470 541 45,000  Level FlightAware Transoceanic
06:50PM 30.9958 -139.3459 63° Northeast 470 541 45,000  Level FlightAware Transoceanic
06:51PM 31.0546 -139.2096 63° Northeast 470 541 45,000  Level FlightAware Transoceanic
06:52PM 31.1132 -139.0731 63° Northeast 470 541 45,000  Level FlightAware Transoceanic
06:53PM 31.1717 -138.9364 63° Northeast 470 541 45,000  Level FlightAware Transoceanic
06:54PM 31.2301 -138.7996 64° Northeast 470 541 45,000  Level FlightAware Transoceanic
06:55PM 31.2883 -138.6626 64° Northeast 470 541 45,000  Level FlightAware Transoceanic
06:56PM 31.3464 -138.5254 64° Northeast 470 541 45,000  Level FlightAware Transoceanic
06:57PM 31.4043 -138.3880 64° Northeast 470 541 45,000  Level FlightAware Transoceanic
06:58PM 31.4621 -138.2505 64° Northeast 470 541 45,000  Level FlightAware Transoceanic
06:59PM 31.5198 -138.1129 64° Northeast 470 541 45,000  Level FlightAware Transoceanic
07:00PM 31.5772 -137.9750 64° Northeast 470 541 45,000  Level FlightAware Transoceanic
07:01PM 31.6346 -137.8370 64° Northeast 470 541 45,000  Level FlightAware Transoceanic
07:02PM 31.6918 -137.6988 64° Northeast 470 541 45,000  Level FlightAware Transoceanic
07:03PM 31.7488 -137.5604 64° Northeast 470 541 45,000  Level FlightAware Transoceanic
07:04PM 31.8057 -137.4219 64° Northeast 470 541 45,000  Level FlightAware Transoceanic
07:05PM 31.8624 -137.2832 64° Northeast 470 541 45,000  Level FlightAware Transoceanic
07:06PM 31.9190 -137.1443 64° Northeast 470 541 45,000  Level FlightAware Transoceanic
07:07PM 31.9755 -137.0052 64° Northeast 470 541 45,000  Level FlightAware Transoceanic
07:08PM 32.0318 -136.8660 65° Northeast 470 541 45,000  Level FlightAware Transoceanic
07:09PM 32.0879 -136.7267 65° Northeast 470 541 45,000  Level FlightAware Transoceanic
07:10PM 32.1439 -136.5871 65° Northeast 470 541 45,000  Level FlightAware Transoceanic
07:11PM 32.1997 -136.4474 65° Northeast 470 541 45,000  Level FlightAware Transoceanic
07:12PM 32.2554 -136.3075 65° Northeast 470 541 45,000  Level FlightAware Transoceanic
07:13PM 32.3109 -136.1674 65° Northeast 470 541 45,000  Level FlightAware Transoceanic
07:14PM 32.3663 -136.0271 65° Northeast 470 541 45,000  Level FlightAware Transoceanic
07:15PM 32.4215 -135.8867 65° Northeast 470 541 45,000  Level FlightAware Transoceanic
07:16PM 32.4766 -135.7461 65° Northeast 470 541 45,000  Level FlightAware Transoceanic
07:17PM 32.5315 -135.6054 65° Northeast 470 541 45,000  Level FlightAware Transoceanic
07:18PM 32.5862 -135.4644 65° Northeast 470 541 45,000  Level FlightAware Transoceanic
07:19PM 32.6408 -135.3233 65° Northeast 470 541 45,000  Level FlightAware Transoceanic
07:20PM 32.6952 -135.1821 65° Northeast 470 541 45,000  Level FlightAware Transoceanic
07:21PM 32.7495 -135.0406 66° East 470 541 45,000  Level FlightAware Transoceanic
07:22PM 32.8036 -134.8990 66° East 470 541 45,000  Level FlightAware Transoceanic
07:23PM 32.8575 -134.7572 66° East 470 541 45,000  Level FlightAware Transoceanic
07:24PM 32.9113 -134.6152 66° East 470 541 45,000  Level FlightAware Transoceanic
07:25PM 32.9650 -134.4731 66° East 470 541 45,000  Level FlightAware Transoceanic
07:26PM 33.0184 -134.3308 66° East 470 541 45,000  Level FlightAware Transoceanic
07:27PM 33.0717 -134.1883 66° East 470 541 45,000  Level FlightAware Transoceanic
07:28PM 33.1249 -134.0457 66° East 470 541 45,000  Level FlightAware Transoceanic
07:29PM 33.1779 -133.9028 66° East 470 541 45,000  Level FlightAware Transoceanic
07:30PM 33.2307 -133.7598 66° East 470 541 45,000  Level FlightAware Transoceanic
07:31PM 33.2833 -133.6167 66° East 470 541 45,000  Level FlightAware Transoceanic
07:31PM 33.2833 -133.6167 66° East 490 564 45,000  Level Oakland Oceanic (ODAPS)
07:32PM 33.3390 -133.4646 66° East 470 541 45,000  Level FlightAware Transoceanic
07:33PM 33.3944 -133.3123 66° East 470 541 45,000  Level FlightAware Transoceanic
07:34PM 33.4497 -133.1599 67° East 470 541 45,000  Level FlightAware Transoceanic
07:35PM 33.5047 -133.0072 67° East 470 541 45,000  Level FlightAware Transoceanic
07:36PM 33.5596 -132.8544 67° East 470 541 45,000  Level FlightAware Transoceanic
07:37PM 33.7143 -132.4198 67° East 490 564 45,000  Level FlightAware Transoceanic
07:38PM 33.7673 -132.2693 67° East 490 564 45,000  Level FlightAware Transoceanic
07:39PM 33.8202 -132.1187 67° East 490 564 45,000  Level FlightAware Transoceanic
07:40PM 33.8729 -131.9679 67° East 490 564 45,000  Level FlightAware Transoceanic
07:41PM 33.9254 -131.8169 67° East 490 564 45,000  Level FlightAware Transoceanic
07:42PM 33.9777 -131.6657 67° East 490 564 45,000  Level FlightAware Transoceanic
07:43PM 34.0298 -131.5143 67° East 490 564 45,000  Level FlightAware Transoceanic
07:44PM 34.0818 -131.3628 68° East 490 564 45,000  Level FlightAware Transoceanic
07:45PM 34.1336 -131.2110 68° East 490 564 45,000  Level FlightAware Transoceanic
07:46PM 34.1851 -131.0591 68° East 490 564 45,000  Level FlightAware Transoceanic
07:47PM 34.2365 -130.9070 68° East 490 564 45,000  Level FlightAware Transoceanic
07:48PM 34.2877 -130.7547 68° East 490 564 45,000  Level FlightAware Transoceanic
07:49PM 34.3387 -130.6022 68° East 490 564 45,000  Level FlightAware Transoceanic
07:50PM 34.3895 -130.4495 68° East 490 564 45,000  Level FlightAware Transoceanic
07:51PM 34.4402 -130.2966 68° East 490 564 45,000  Level FlightAware Transoceanic
07:52PM 34.4906 -130.1436 68° East 490 564 45,000  Level FlightAware Transoceanic
07:53PM 34.5409 -129.9904 68° East 490 564 45,000  Level FlightAware Transoceanic
07:54PM 34.5909 -129.8369 68° East 490 564 45,000  Level FlightAware Transoceanic
07:55PM 34.6408 -129.6833 69° East 490 564 45,000  Level FlightAware Transoceanic
07:56PM 34.6905 -129.5296 69° East 490 564 45,000  Level FlightAware Transoceanic
07:57PM 34.7400 -129.3756 69° East 490 564 45,000  Level FlightAware Transoceanic
07:58PM 34.7892 -129.2214 69° East 490 564 45,000  Level FlightAware Transoceanic
07:59PM 34.8383 -129.0671 69° East 490 564 45,000  Level FlightAware Transoceanic
08:00PM 34.8872 -128.9126 69° East 490 564 45,000  Level FlightAware Transoceanic
08:01PM 34.9359 -128.7579 69° East 490 564 45,000  Level FlightAware Transoceanic
08:02PM 34.9844 -128.6030 69° East 490 564 45,000  Level FlightAware Transoceanic
08:03PM 35.0327 -128.4479 69° East 490 564 45,000  Level FlightAware Transoceanic
08:04PM 35.0809 -128.2926 69° East 490 564 45,000  Level FlightAware Transoceanic
08:05PM 35.1288 -128.1372 69° East 490 564 45,000  Level FlightAware Transoceanic
08:06PM 35.1765 -127.9816 69° East 490 564 45,000  Level FlightAware Transoceanic
08:07PM 35.2240 -127.8258 70° East 490 564 45,000  Level FlightAware Transoceanic
08:08PM 35.2713 -127.6698 70° East 490 564 45,000  Level FlightAware Transoceanic
08:09PM 35.3184 -127.5136 70° East 490 564 45,000  Level FlightAware Transoceanic
08:10PM 35.3653 -127.3573 70° East 490 564 45,000  Level FlightAware Transoceanic
08:11PM 35.4120 -127.2008 70° East 490 564 45,000  Level FlightAware Transoceanic
08:12PM 35.4586 -127.0441 70° East 490 564 45,000  Level FlightAware Transoceanic
08:13PM 35.5049 -126.8872 70° East 490 564 45,000  Level FlightAware Transoceanic
08:14PM 35.5510 -126.7301 70° East 490 564 45,000  Level FlightAware Transoceanic
08:15PM 35.5969 -126.5728 70° East 490 564 45,000  Level FlightAware Transoceanic
08:15PM 35.6056 -126.5425 67° East 497 572 45,000  Level Oakland Center
08:16PM 35.6426 -126.4154 70° East 490 564 45,000  Level FlightAware Transoceanic
08:16PM 35.6614 -126.3567 70° East 488 562 45,000  Level Oakland Center
08:17PM 35.6880 -126.2578 70° East 490 564 45,000  Level FlightAware Transoceanic
08:17PM 35.7058 -126.1994 71° East 488 562 45,000  Level Oakland Center
08:18PM 35.7333 -126.1000 67° East 490 564 45,000  Level FlightAware Transoceanic
08:18PM 35.7514 -126.0425 70° East 488 562 45,000  Level Oakland Center
08:19PM 35.7841 -125.9526 67° East 490 564 45,000  Level FlightAware Transoceanic
08:19PM 35.8133 -125.8933 63° Northeast 491 565 45,000  Level Oakland Center
08:20PM 35.8346 -125.8050 67° East 490 564 45,000  Level FlightAware Transoceanic
08:20PM 35.8872 -125.7536 57° Northeast 492 566 45,000  Level Oakland Center
08:21PM 35.9617 -125.6133 57° Northeast 490 564 45,000  Level Oakland Center
08:22PM 36.0264 -125.4650 62° Northeast 490 564 45,000  Level Oakland Center
08:23PM 36.0975 -125.3236 58° Northeast 487 560 45,000 -300 Level Oakland Center
08:24PM 36.1669 -125.1811 59° Northeast 486 559 44,400 -900 Descending Oakland Center
08:25PM 36.2503 -125.0078 59° Northeast 488 562 43,200 -1,080 Descending Oakland Center
08:26PM 36.3200 -124.8639 59° Northeast 487 560 42,200 -1,020 Descending Oakland Center
08:27PM 36.3917 -124.7175 59° Northeast 496 571 41,200 -1,080 Descending Oakland Center
08:28PM 36.4597 -124.5708 60° Northeast 493 567 40,100 -1,860 Descending Oakland Center
08:29PM 36.5322 -124.4200 59° Northeast 504 580 37,500 -2,640 Descending Oakland Center
08:30PM 36.6044 -124.2694 59° Northeast 509 586 34,800 -2,640 Descending Oakland Center
08:31PM 36.6750 -124.1194 60° Northeast 504 580 32,100 -2,640 Descending Oakland Center
08:32PM 36.7458 -123.9708 59° Northeast 501 577 29,500 -2,820 Descending Oakland Center
08:33PM 36.8272 -123.7986 59° Northeast 484 557 26,400 -2,640 Descending Oakland Center
08:34PM 36.8900 -123.6647 60° Northeast 455 524 24,100 -2,280 Descending Oakland Center
08:35PM 36.9489 -123.5356 60° Northeast 436 502 21,800 -2,220 Descending Oakland Center
08:36PM 37.0067 -123.4106 60° Northeast 424 488 19,600 -2,160 Descending Oakland Center
08:37PM 37.0633 -123.2867 60° Northeast 417 480 17,400 -2,160 Descending Oakland Center
08:38PM 37.1206 -123.1664 59° Northeast 407 468 15,200 -2,100 Descending Oakland Center
08:39PM 37.1747 -123.0481 60° Northeast 399 459 13,100 -1,980 Descending Oakland Center
08:40PM 37.2247 -122.9372 60° Northeast 383 441 11,200 -1,740 Descending Oakland Center
08:41PM 37.2689 -122.8108 66° East 342 394 9,600 -1,020 Descending Oakland Center
08:42PM 37.2917 -122.7158 73° East 287 330 9,200 -720 Descending Oakland Center
08:43PM 37.3125 -122.6231 74° East 276 318 8,200 -600 Descending Oakland Center
08:44PM 37.3350 -122.5253 74° East 286 329 8,000 -120 Descending Oakland Center
08:45PM 37.3575 -122.4289 74° East 289 333 8,000  Level Oakland Center
08:46PM 37.3833 -122.3500 68° East 289 333 8,000 -540 Level Northern Cal TRACON
08:47PM 37.4000 -122.2500 78° East 288 331 7,100 -1,200 Descending Northern Cal TRACON
08:48PM 37.4000 -122.1500 90° East 279 321 5,600 -1,500 Descending Northern Cal TRACON
08:49PM 37.4000 -122.0667 90° East 266 306 4,100 -840 Descending Northern Cal TRACON
08:50PM 37.4667 -122.0167 31° Northeast 254 292 4,000 -60 Descending Northern Cal TRACON
08:51PM 37.5333 -122.0000 11° North 224 258 4,000  Level Northern Cal TRACON
08:52PM 37.5833 -121.9833 15° North 188 216 4,000  Level Northern Cal TRACON
08:53PM 37.6333 -121.9667 15° North 177 204 4,000 -240 Level Northern Cal TRACON
08:54PM 37.6667 -121.9833 338° Northwest 187 215 3,600 -600 Descending Northern Cal TRACON
08:55PM 37.6667 -122.0500 270° West 160 184 2,800 -840 Descending Northern Cal TRACON
08:56PM 37.6833 -122.1000 293° West 159 183 2,000 -900 Descending Northern Cal TRACON
08:57PM 37.7000 -122.1333 302° West 136 157 1,100 -840 Descending Northern Cal TRACON
08:58PM 37.7167 -122.1833 293° West 126 145 400 -720 Descending Northern Cal TRACON